Terminal Aerodrome Forecast
Issued by NWS Duluth, MN

Home | Current Version | Previous Version | Text Only | Print | Product List | Glossary On
Versions: 1 2 3 4 5 6 7 8 9 10 11 12 13 14 15 16 17
000
FTUS43 KDLH 151100
TAFINL
TAF
KINL 151128Z 1512/1612 30008KT P6SM SCT040
     FM160000 08005KT P6SM BKN080
     FM160600 09010KT P6SM OVC040 PROB30 1608/1612 5SM -SN OVC030=

USA.gov is the U.S. government's official web portal to all federal, state and local government web resources and services.